createdAt,value
2018-11-06T00:01:55.157Z,48.90
2018-11-06T00:04:29.097Z,46.60
2018-11-06T00:06:58.017Z,47.27
2018-11-06T00:09:26.714Z,45.23
2018-11-06T00:11:55.334Z,50.03
2018-11-06T00:14:23.981Z,47.73
2018-11-06T00:16:52.558Z,40.37
2018-11-06T00:19:21.570Z,41.93
2018-11-06T00:21:50.185Z,41.57
2018-11-06T00:24:18.861Z,41.77
2018-11-06T00:26:47.505Z,41.40
2018-11-06T00:29:16.124Z,40.87
2018-11-06T00:31:44.833Z,40.67
2018-11-06T00:34:13.534Z,40.87
2018-11-06T00:36:42.107Z,38.83
2018-11-06T00:39:11.051Z,38.73
2018-11-06T00:41:39.850Z,38.47
2018-11-06T00:44:08.692Z,35.93
2018-11-06T00:46:37.712Z,40.77
2018-11-06T00:49:06.516Z,33.53
2018-11-06T00:51:35.181Z,39.13
2018-11-06T00:54:03.837Z,37.53
2018-11-06T00:56:32.514Z,34.03
2018-11-06T00:59:01.181Z,36.83
2018-11-06T01:01:29.827Z,36.37
2018-11-06T01:04:03.773Z,35.53
2018-11-06T01:06:32.433Z,37.83
2018-11-06T01:09:01.073Z,37.07
2018-11-06T01:11:29.666Z,39.43
2018-11-06T01:13:58.306Z,40.80
2018-11-06T01:16:26.924Z,37.83
2018-11-06T01:18:55.591Z,41.57
2018-11-06T01:21:24.264Z,38.73
2018-11-06T01:23:52.863Z,35.83
2018-11-06T01:26:21.599Z,37.07
2018-11-06T01:28:50.250Z,37.00
2018-11-06T01:31:18.922Z,34.70
2018-11-06T01:33:47.562Z,36.13
2018-11-06T01:36:16.142Z,36.80
2018-11-06T01:38:44.773Z,38.07
2018-11-06T01:41:13.392Z,35.87
2018-11-06T01:43:42.058Z,33.93
2018-11-06T01:46:10.668Z,35.43
2018-11-06T01:48:39.317Z,37.07
2018-11-06T01:51:07.929Z,35.23
2018-11-06T01:53:36.532Z,36.77
2018-11-06T01:56:05.173Z,38.33
2018-11-06T01:58:33.796Z,35.50
2018-11-06T02:01:02.459Z,34.07
2018-11-06T02:03:31.057Z,39.57
2018-11-06T02:05:59.734Z,40.83
2018-11-06T02:08:28.368Z,34.40
2018-11-06T02:10:57.046Z,37.10
2018-11-06T02:13:25.697Z,32.93
2018-11-06T02:15:54.342Z,37.67
2018-11-06T02:18:22.973Z,35.70
2018-11-06T02:20:51.598Z,38.13
2018-11-06T02:23:20.240Z,34.77
2018-11-06T02:25:48.871Z,33.43
2018-11-06T02:28:17.485Z,33.67
2018-11-06T02:30:46.094Z,33.07
2018-11-06T02:33:14.753Z,33.20
2018-11-06T02:35:43.423Z,37.20
2018-11-06T02:38:12.141Z,36.93
2018-11-06T02:40:40.765Z,36.30
2018-11-06T02:43:09.420Z,36.23
2018-11-06T02:45:38.061Z,34.20
2018-11-06T02:48:07.127Z,38.10
2018-11-06T02:50:35.768Z,37.53
2018-11-06T02:53:10.980Z,35.13
2018-11-06T02:55:39.683Z,37.77
2018-11-06T02:58:08.269Z,33.73
2018-11-06T03:00:36.905Z,37.33
2018-11-06T03:03:05.974Z,33.47
2018-11-06T03:05:34.593Z,40.20
2018-11-06T03:08:03.221Z,36.53
2018-11-06T03:10:31.997Z,31.03
2018-11-06T03:13:00.538Z,36.03
2018-11-06T03:15:29.202Z,35.07
2018-11-06T03:17:57.859Z,34.53
2018-11-06T03:20:26.505Z,31.97
2018-11-06T03:22:55.144Z,32.33
2018-11-06T03:25:23.761Z,32.17
2018-11-06T03:27:52.385Z,28.10
2018-11-06T03:30:21.044Z,28.57
2018-11-06T03:32:49.695Z,29.37
2018-11-06T03:35:18.357Z,28.87
2018-11-06T03:37:46.966Z,27.67
2018-11-06T03:40:15.582Z,27.20
2018-11-06T03:42:44.549Z,27.27
2018-11-06T03:45:13.897Z,27.80
2018-11-06T03:47:42.511Z,27.33
2018-11-06T03:50:12.491Z,24.97
2018-11-06T03:52:41.187Z,24.30
2018-11-06T03:55:10.035Z,23.90
2018-11-06T03:57:38.651Z,24.20
2018-11-06T04:00:15.329Z,24.47
2018-11-06T04:02:44.486Z,26.73
2018-11-06T04:05:13.473Z,22.00
2018-11-06T04:07:42.117Z,20.97
2018-11-06T04:10:11.784Z,25.33
2018-11-06T04:12:41.112Z,24.10
2018-11-06T04:15:10.353Z,22.47
2018-11-06T04:17:38.950Z,26.03
2018-11-06T04:20:07.978Z,24.27
2018-11-06T04:22:36.633Z,25.00
2018-11-06T04:25:05.848Z,23.77
2018-11-06T04:27:34.536Z,25.37
2018-11-06T04:30:10.319Z,26.43
2018-11-06T04:32:39.038Z,24.43
2018-11-06T04:35:07.890Z,23.63
2018-11-06T04:37:36.571Z,24.47
2018-11-06T04:40:06.052Z,25.27
2018-11-06T04:42:34.683Z,24.93
2018-11-06T04:45:03.336Z,28.20
2018-11-06T04:47:32.027Z,24.00
2018-11-06T04:50:00.649Z,30.70
2018-11-06T04:52:29.275Z,28.73
2018-11-06T04:54:57.944Z,28.00
2018-11-06T04:57:26.513Z,29.70
2018-11-06T04:59:55.143Z,32.67
2018-11-06T05:02:23.786Z,28.33
2018-11-06T05:04:52.414Z,26.37
2018-11-06T05:07:21.940Z,26.57
2018-11-06T05:09:50.579Z,26.03
2018-11-06T05:12:19.245Z,32.87
2018-11-06T05:14:47.898Z,26.07
2018-11-06T05:17:16.532Z,26.17
2018-11-06T05:19:45.138Z,26.17
2018-11-06T05:22:13.749Z,25.77
2018-11-06T05:24:42.416Z,28.77
2018-11-06T05:27:11.212Z,28.50
2018-11-06T05:29:39.852Z,26.67
2018-11-06T05:32:08.488Z,25.53
2018-11-06T05:34:37.478Z,26.03
2018-11-06T05:37:06.131Z,31.63
2018-11-06T05:39:34.940Z,33.43
2018-11-06T05:42:03.527Z,26.17
2018-11-06T05:44:32.218Z,35.20
2018-11-06T05:47:00.862Z,30.17
2018-11-06T05:49:29.447Z,26.73
2018-11-06T05:51:58.042Z,33.57
2018-11-06T05:54:26.659Z,31.57
2018-11-06T05:56:55.278Z,34.17
2018-11-06T05:59:23.938Z,31.13
2018-11-06T06:01:52.570Z,38.60
2018-11-06T06:04:21.210Z,38.90
2018-11-06T06:06:49.930Z,48.00
2018-11-06T06:09:18.580Z,44.03
2018-11-06T06:11:47.265Z,42.20
2018-11-06T06:14:15.881Z,41.60
2018-11-06T06:16:44.538Z,41.87
2018-11-06T06:19:13.193Z,43.53
2018-11-06T06:21:41.858Z,39.20
2018-11-06T06:24:10.506Z,44.87
2018-11-06T06:26:39.173Z,44.87
2018-11-06T06:29:07.852Z,53.40
2018-11-06T06:31:36.456Z,52.97
2018-11-06T06:34:05.102Z,50.80
2018-11-06T06:36:33.756Z,43.07
2018-11-06T06:39:02.397Z,44.67
2018-11-06T06:41:31.096Z,45.67
2018-11-06T06:43:59.697Z,38.97
2018-11-06T06:46:28.391Z,49.00
2018-11-06T06:48:57.022Z,38.23
2018-11-06T06:51:25.636Z,46.77
2018-11-06T06:53:54.312Z,47.63
2018-11-06T06:56:26.029Z,39.70
2018-11-06T06:58:55.442Z,37.00
2018-11-06T07:01:24.052Z,35.37
2018-11-06T07:03:52.657Z,40.70
2018-11-06T07:06:21.334Z,39.43
2018-11-06T07:08:50.002Z,37.90
2018-11-06T07:11:18.732Z,32.30
2018-11-06T07:13:47.380Z,38.23
2018-11-06T07:16:16.070Z,35.23
2018-11-06T07:18:44.714Z,35.40
2018-11-06T07:21:13.333Z,33.27
2018-11-06T07:23:41.995Z,35.87
2018-11-06T07:26:10.611Z,31.47
2018-11-06T07:28:39.301Z,35.07
2018-11-06T07:31:07.973Z,31.80
2018-11-06T07:33:36.636Z,31.20
2018-11-06T07:36:05.302Z,31.20
2018-11-06T07:38:33.992Z,30.23
2018-11-06T07:41:02.755Z,31.97
2018-11-06T07:43:31.302Z,31.37
2018-11-06T07:45:59.984Z,33.07
2018-11-06T07:48:28.649Z,31.57
2018-11-06T07:50:57.302Z,30.20
2018-11-06T07:53:26.030Z,33.00
2018-11-06T07:55:54.820Z,33.07
2018-11-06T07:58:23.467Z,35.40
2018-11-06T08:00:52.183Z,32.60
2018-11-06T08:03:20.890Z,33.90
2018-11-06T08:05:49.859Z,34.60
2018-11-06T08:08:18.562Z,30.43
2018-11-06T08:10:47.242Z,32.47
2018-11-06T08:13:15.896Z,30.60
2018-11-06T08:15:44.626Z,28.83
2018-11-06T08:18:13.320Z,30.33
2018-11-06T08:20:42.069Z,31.33
2018-11-06T08:23:10.794Z,30.70
2018-11-06T08:25:39.449Z,36.80
2018-11-06T08:28:08.117Z,42.47
2018-11-06T08:30:36.799Z,34.90
2018-11-06T08:33:05.584Z,31.50
2018-11-06T08:35:34.249Z,33.00
2018-11-06T08:38:03.014Z,33.57
2018-11-06T08:40:31.728Z,31.03
2018-11-06T08:43:00.360Z,30.80
2018-11-06T08:45:29.043Z,30.03
2018-11-06T08:47:57.728Z,31.57
2018-11-06T08:50:26.347Z,31.57
2018-11-06T08:52:55.538Z,31.73
2018-11-06T08:55:24.245Z,31.13
2018-11-06T08:57:52.893Z,31.13
2018-11-06T09:00:21.535Z,33.30
2018-11-06T09:02:50.309Z,30.73
2018-11-06T09:05:19.558Z,32.47
2018-11-06T09:07:48.245Z,49.87
2018-11-06T09:10:17.346Z,32.17
2018-11-06T09:12:46.092Z,29.43
2018-11-06T09:15:15.652Z,30.37
2018-11-06T09:17:44.334Z,28.00
2018-11-06T09:20:14.174Z,29.97
2018-11-06T09:22:42.801Z,29.73
2018-11-06T09:25:13.687Z,28.70
2018-11-06T09:27:43.087Z,30.37
2018-11-06T09:30:14.112Z,30.53
2018-11-06T09:32:42.820Z,29.53
2018-11-06T09:35:12.411Z,31.57
2018-11-06T09:37:41.703Z,28.53
2018-11-06T09:40:12.781Z,27.90
2018-11-06T09:42:41.521Z,27.53
2018-11-06T09:45:10.953Z,29.17
2018-11-06T09:47:39.551Z,28.30
2018-11-06T09:50:11.837Z,30.13
2018-11-06T09:52:40.485Z,29.80
2018-11-06T09:55:09.137Z,28.80
2018-11-06T09:57:37.841Z,28.17
2018-11-06T10:00:12.316Z,29.70
2018-11-06T10:02:40.960Z,30.03
2018-11-06T10:05:10.396Z,28.70
2018-11-06T10:07:39.308Z,29.13
2018-11-06T10:10:10.661Z,26.10
2018-11-06T10:12:39.715Z,25.08
2018-11-06T10:15:10.363Z,26.97
2018-11-06T10:17:39.850Z,26.62
2018-11-06T10:20:09.430Z,32.83
2018-11-06T10:22:38.197Z,27.58
2018-11-06T10:25:07.332Z,27.58
2018-11-06T10:27:36.217Z,26.40
2018-11-06T10:30:11.004Z,27.00
2018-11-06T10:32:39.667Z,25.40
2018-11-06T10:35:09.064Z,24.87
2018-11-06T10:37:37.698Z,24.18
2018-11-06T10:40:09.628Z,23.27
2018-11-06T10:42:38.631Z,26.15
2018-11-06T10:45:08.067Z,22.65
2018-11-06T10:47:36.985Z,18.85
2018-11-06T10:50:06.320Z,59.03
2018-11-06T10:52:34.998Z,44.45
2018-11-06T10:55:04.017Z,45.98
2018-11-06T10:57:32.642Z,31.82
2018-11-06T11:00:01.305Z,28.85
2018-11-06T11:02:35.319Z,22.95
2018-11-06T11:05:04.035Z,23.87
2018-11-06T11:07:32.690Z,23.67
2018-11-06T11:10:01.358Z,23.50
2018-11-06T11:12:30.028Z,23.32
2018-11-06T11:14:58.697Z,23.02
2018-11-06T11:17:27.354Z,31.60
2018-11-06T11:19:56.056Z,24.77
2018-11-06T11:22:24.732Z,12.30
2018-11-06T11:24:53.374Z,13.70
2018-11-06T11:27:22.051Z,18.17
2018-11-06T11:29:50.782Z,23.60
2018-11-06T11:32:19.426Z,10.90
2018-11-06T11:34:48.414Z,16.30
2018-11-06T11:37:17.160Z,27.75
2018-11-06T11:39:45.866Z,31.82
2018-11-06T11:42:14.499Z,16.73
2018-11-06T11:44:43.133Z,15.78
2018-11-06T11:47:11.766Z,11.77
2018-11-06T11:49:40.417Z,10.00
2018-11-06T11:52:09.087Z,14.53
2018-11-06T11:54:38.637Z,12.70
2018-11-06T11:57:07.305Z,7.67
2018-11-06T11:59:35.952Z,8.93
2018-11-06T12:02:04.979Z,7.60
2018-11-06T12:04:33.600Z,8.43
2018-11-06T12:07:02.205Z,13.57
2018-11-06T12:09:30.855Z,7.20
2018-11-06T12:11:59.531Z,9.17
2018-11-06T12:14:28.136Z,9.93
2018-11-06T12:16:56.811Z,11.90
2018-11-06T12:19:25.452Z,8.87
2018-11-06T12:21:54.113Z,10.67
2018-11-06T12:24:22.828Z,6.87
2018-11-06T12:26:51.459Z,11.83
2018-11-06T12:29:20.121Z,7.17
2018-11-06T12:31:48.756Z,20.87
2018-11-06T12:34:17.413Z,14.17
2018-11-06T12:36:46.674Z,10.57
2018-11-06T12:39:15.342Z,11.20
2018-11-06T12:41:44.047Z,8.43
2018-11-06T12:44:12.689Z,11.67
2018-11-06T12:46:41.346Z,7.80
2018-11-06T12:49:10.005Z,11.87
2018-11-06T12:51:38.677Z,10.00
2018-11-06T12:54:07.460Z,8.70
2018-11-06T12:56:36.726Z,10.47
2018-11-06T12:59:05.510Z,12.67
2018-11-06T13:01:34.149Z,11.60
2018-11-06T13:04:02.845Z,13.57
2018-11-06T13:06:31.507Z,10.53
2018-11-06T13:09:00.173Z,10.37
2018-11-06T13:11:28.803Z,11.70
2018-11-06T13:13:57.544Z,10.87
2018-11-06T13:16:26.177Z,11.17
2018-11-06T13:18:54.894Z,15.83
2018-11-06T13:21:23.600Z,11.50
2018-11-06T13:23:52.221Z,13.20
2018-11-06T13:26:20.976Z,14.03
2018-11-06T13:28:49.497Z,11.43
2018-11-06T13:31:18.158Z,13.93
2018-11-06T13:33:46.855Z,16.43
2018-11-06T13:36:15.493Z,11.37
2018-11-06T13:38:44.104Z,12.03
2018-11-06T13:41:12.804Z,13.13
2018-11-06T13:43:41.695Z,10.20
2018-11-06T13:46:10.277Z,11.97
2018-11-06T13:48:38.930Z,18.27
2018-11-06T13:51:07.592Z,11.40
2018-11-06T13:53:36.220Z,11.40
2018-11-06T13:56:04.958Z,11.37
2018-11-06T13:58:33.604Z,14.40
2018-11-06T14:01:02.230Z,15.40
2018-11-06T14:03:30.889Z,12.20
2018-11-06T14:05:59.517Z,12.43
2018-11-06T14:08:28.285Z,13.33
2018-11-06T14:10:56.952Z,17.13
2018-11-06T14:13:25.552Z,12.30
2018-11-06T14:15:54.203Z,18.23
2018-11-06T14:18:23.174Z,12.63
2018-11-06T14:20:51.881Z,11.47
2018-11-06T14:23:20.511Z,11.13
2018-11-06T14:25:49.169Z,11.10
2018-11-06T14:28:18.083Z,14.93
2018-11-06T14:30:46.723Z,13.10
2018-11-06T14:33:15.390Z,14.07
2018-11-06T14:35:44.126Z,16.27
2018-11-06T14:38:12.750Z,13.17
2018-11-06T14:40:41.377Z,14.57
2018-11-06T14:43:10.029Z,16.47
2018-11-06T14:45:38.700Z,14.43
2018-11-06T14:48:07.498Z,14.27
2018-11-06T14:50:36.110Z,15.73
2018-11-06T14:53:05.035Z,15.80
2018-11-06T14:55:33.654Z,19.53
2018-11-06T14:58:02.349Z,18.33
2018-11-06T15:00:31.168Z,18.83
2018-11-06T15:02:59.780Z,17.27
2018-11-06T15:05:28.411Z,19.90
2018-11-06T15:07:57.035Z,15.97
2018-11-06T15:10:25.691Z,18.00
2018-11-06T15:12:54.333Z,14.00
2018-11-06T15:15:22.985Z,15.33
2018-11-06T15:17:51.642Z,18.67
2018-11-06T15:20:21.566Z,18.50
2018-11-06T15:22:50.239Z,17.33
2018-11-06T15:25:19.465Z,24.83
2018-11-06T15:27:48.142Z,24.00
2018-11-06T15:30:17.778Z,26.10
2018-11-06T15:32:46.392Z,24.43
2018-11-06T15:35:16.411Z,24.03
2018-11-06T15:37:45.166Z,29.53
2018-11-06T15:40:15.662Z,28.13
2018-11-06T15:42:44.458Z,34.97
2018-11-06T15:45:15.064Z,31.97
2018-11-06T15:47:44.461Z,38.43
2018-11-06T15:50:14.536Z,33.80
2018-11-06T15:52:43.912Z,33.97
2018-11-06T15:55:12.550Z,35.40
2018-11-06T15:57:41.176Z,38.93
2018-11-06T16:00:12.786Z,38.93
2018-11-06T16:02:41.711Z,31.10
2018-11-06T16:05:10.423Z,37.87
2018-11-06T16:07:39.420Z,42.30
2018-11-06T16:10:16.519Z,35.63
2018-11-06T16:12:45.716Z,28.27
2018-11-06T16:15:14.384Z,34.17
2018-11-06T16:17:43.482Z,29.53
2018-11-06T16:20:13.514Z,48.50
2018-11-06T16:22:42.366Z,40.00
2018-11-06T16:25:12.552Z,40.57
2018-11-06T16:27:41.618Z,32.23
2018-11-06T16:30:12.830Z,31.87
2018-11-06T16:32:41.519Z,26.57
2018-11-06T16:35:12.246Z,34.57
2018-11-06T16:37:41.293Z,36.03
2018-11-06T16:40:10.462Z,35.80
2018-11-06T16:42:39.601Z,36.47
2018-11-06T16:45:10.119Z,31.30
2018-11-06T16:47:38.758Z,29.27
2018-11-06T16:50:08.988Z,25.87
2018-11-06T16:52:37.624Z,21.70
2018-11-06T16:55:06.807Z,22.03
2018-11-06T16:57:35.460Z,24.37
2018-11-06T17:00:13.331Z,21.30
2018-11-06T17:02:42.449Z,24.13
2018-11-06T17:05:12.478Z,29.80
2018-11-06T17:07:41.407Z,26.20
2018-11-06T17:10:11.685Z,23.37
2018-11-06T17:12:40.436Z,24.50
2018-11-06T17:15:11.711Z,25.67
2018-11-06T17:17:40.353Z,22.67
2018-11-06T17:20:10.438Z,25.13
2018-11-06T17:22:39.240Z,23.10
2018-11-06T17:25:09.445Z,23.40
2018-11-06T17:27:38.301Z,24.20
2018-11-06T17:30:12.977Z,27.87
2018-11-06T17:32:41.959Z,28.70
2018-11-06T17:35:12.364Z,27.10
2018-11-06T17:37:41.389Z,26.20
2018-11-06T17:40:12.544Z,26.93
2018-11-06T17:42:41.612Z,23.90
2018-11-06T17:45:12.816Z,25.90
2018-11-06T17:47:41.968Z,26.93
2018-11-06T17:50:12.187Z,25.63
2018-11-06T17:52:40.876Z,28.23
2018-11-06T17:55:11.293Z,22.33
2018-11-06T17:57:40.248Z,22.73
2018-11-06T18:00:14.552Z,22.50
2018-11-06T18:02:43.383Z,25.63
2018-11-06T18:05:13.110Z,24.57
2018-11-06T18:07:42.371Z,24.07
2018-11-06T18:10:13.049Z,27.93
2018-11-06T18:12:41.765Z,25.50
2018-11-06T18:15:10.485Z,25.93
2018-11-06T18:17:39.952Z,29.60
2018-11-06T18:20:09.458Z,29.53
2018-11-06T18:22:38.203Z,27.90
2018-11-06T18:25:07.189Z,22.50
2018-11-06T18:27:35.858Z,26.33
2018-11-06T18:30:08.921Z,27.53
2018-11-06T18:32:37.790Z,24.70
2018-11-06T18:35:07.393Z,27.07
2018-11-06T18:37:36.106Z,30.13
2018-11-06T18:40:05.224Z,27.17
2018-11-06T18:42:33.849Z,34.20
2018-11-06T18:45:02.504Z,29.80
2018-11-06T18:47:31.246Z,32.20
2018-11-06T18:49:59.885Z,31.60
2018-11-06T18:52:28.536Z,40.40
2018-11-06T18:54:57.177Z,35.10
2018-11-06T18:57:25.866Z,33.90
2018-11-06T18:59:54.512Z,35.80
2018-11-06T19:02:23.140Z,34.73
2018-11-06T19:04:51.781Z,34.23
2018-11-06T19:07:20.391Z,36.27
2018-11-06T19:09:49.025Z,34.30
2018-11-06T19:12:17.646Z,35.17
2018-11-06T19:14:46.281Z,35.13
2018-11-06T19:17:14.933Z,35.73
2018-11-06T19:19:43.561Z,38.57
2018-11-06T19:22:12.204Z,37.80
2018-11-06T19:24:40.883Z,37.90
2018-11-06T19:27:09.489Z,38.07
2018-11-06T19:29:38.204Z,41.63
2018-11-06T19:32:07.032Z,39.50
2018-11-06T19:34:35.713Z,44.50
2018-11-06T19:37:04.409Z,38.13
2018-11-06T19:39:33.070Z,37.17
2018-11-06T19:42:01.785Z,41.47
2018-11-06T19:44:30.417Z,36.67
2018-11-06T19:46:59.085Z,37.17
2018-11-06T19:49:27.705Z,38.97
2018-11-06T19:51:56.312Z,34.93
2018-11-06T19:54:24.972Z,40.33
2018-11-06T19:56:53.644Z,37.53
2018-11-06T19:59:22.312Z,36.77
2018-11-06T20:01:50.972Z,36.47
2018-11-06T20:04:19.629Z,35.77
2018-11-06T20:06:48.589Z,35.57
2018-11-06T20:09:17.254Z,36.40
2018-11-06T20:11:45.980Z,33.93
2018-11-06T20:14:14.989Z,37.53
2018-11-06T20:16:43.625Z,34.97
2018-11-06T20:19:12.265Z,38.33
2018-11-06T20:21:40.935Z,37.63
2018-11-06T20:24:09.691Z,39.47
2018-11-06T20:26:38.833Z,35.90
2018-11-06T20:29:07.591Z,35.97
2018-11-06T20:31:36.283Z,33.70
2018-11-06T20:34:05.032Z,36.57
2018-11-06T20:36:33.633Z,35.43
2018-11-06T20:39:02.293Z,32.30
2018-11-06T20:41:30.955Z,32.60
2018-11-06T20:43:59.626Z,29.97
2018-11-06T20:46:28.371Z,29.10
2018-11-06T20:48:57.097Z,29.97
2018-11-06T20:51:25.755Z,28.20
2018-11-06T20:53:54.418Z,30.37
2018-11-06T20:56:23.039Z,28.50
2018-11-06T20:58:51.692Z,28.07
2018-11-06T21:01:20.523Z,28.80
2018-11-06T21:03:49.053Z,29.53
2018-11-06T21:06:17.741Z,28.77
2018-11-06T21:08:46.425Z,28.80
2018-11-06T21:11:15.141Z,32.90
2018-11-06T21:13:43.885Z,32.80
2018-11-06T21:16:12.583Z,34.77
2018-11-06T21:18:41.222Z,34.50
2018-11-06T21:21:09.882Z,33.40
2018-11-06T21:23:38.561Z,33.17
2018-11-06T21:26:07.385Z,30.77
2018-11-06T21:28:36.014Z,29.23
2018-11-06T21:31:04.709Z,26.30
2018-11-06T21:33:33.361Z,27.77
2018-11-06T21:36:02.026Z,28.43
2018-11-06T21:38:30.713Z,27.13
2018-11-06T21:40:59.384Z,28.23
2018-11-06T21:43:28.010Z,25.63
2018-11-06T21:45:56.690Z,26.63
2018-11-06T21:48:25.364Z,27.03
2018-11-06T21:50:54.039Z,25.57
2018-11-06T21:53:22.805Z,26.43
2018-11-06T21:55:51.469Z,24.53
2018-11-06T21:58:20.069Z,20.33
2018-11-06T22:00:48.863Z,22.73
2018-11-06T22:03:17.414Z,24.77
2018-11-06T22:05:46.086Z,19.97
2018-11-06T22:08:14.777Z,22.60
2018-11-06T22:10:43.492Z,21.60
2018-11-06T22:13:12.208Z,20.17
2018-11-06T22:15:40.902Z,23.33
2018-11-06T22:18:09.639Z,21.37
2018-11-06T22:20:38.372Z,21.17
2018-11-06T22:23:07.086Z,21.13
2018-11-06T22:25:35.726Z,20.03
2018-11-06T22:28:04.358Z,21.47
2018-11-06T22:30:32.978Z,19.97
2018-11-06T22:33:01.686Z,24.60
2018-11-06T22:35:30.334Z,24.00
2018-11-06T22:37:59.038Z,24.93
2018-11-06T22:40:27.711Z,21.60
2018-11-06T22:42:56.341Z,22.43
2018-11-06T22:45:24.987Z,23.93
2018-11-06T22:47:53.592Z,24.30
2018-11-06T22:50:22.257Z,23.47
2018-11-06T22:52:50.994Z,19.57
2018-11-06T22:55:19.609Z,21.03
2018-11-06T22:57:48.218Z,24.47
2018-11-06T23:00:23.509Z,23.37
2018-11-06T23:02:52.141Z,23.50
2018-11-06T23:05:20.778Z,22.43
2018-11-06T23:07:54.588Z,22.67
2018-11-06T23:10:23.275Z,21.67
2018-11-06T23:12:52.009Z,21.87
2018-11-06T23:15:20.642Z,22.30
2018-11-06T23:17:49.440Z,23.57
2018-11-06T23:20:18.058Z,24.87
2018-11-06T23:22:46.702Z,22.80
2018-11-06T23:25:15.374Z,24.47
2018-11-06T23:27:44.020Z,25.90
2018-11-06T23:30:14.322Z,25.43
2018-11-06T23:32:43.054Z,23.87
2018-11-06T23:35:11.695Z,23.97
2018-11-06T23:37:40.956Z,23.70
2018-11-06T23:40:10.334Z,22.63
2018-11-06T23:42:39.166Z,23.97
2018-11-06T23:45:08.465Z,24.13
2018-11-06T23:47:37.165Z,23.63
2018-11-06T23:50:06.350Z,24.00
2018-11-06T23:52:34.964Z,23.70
2018-11-06T23:55:03.658Z,27.03
2018-11-06T23:57:32.316Z,23.77
